Yatesville, Pennsylvania
Current Conditions -  °F | °C
As of 8:54 AM on Wednesday 28 Jan 2015 (Local Time) from KAVP Reporting Station
Clear Clear  
Wind Chill: -9°   Ceiling: Unl
Heat Index: -9°   Visibility: 10mi
Dew Point: -17°   Wind: 0mph
Humidity: 56%   Direction: NA
Pressure: 30.12"   Gusts: NA
Location:  41.2973°N, 75.7399°W
Report Text: KAVP 281354Z 00000KT 10SM CLR M09/M17 A3012 RMK AO2 SLP214 T10941167
Loading
Personal Weather Stations






























Interactive Weather Map New forecast layout! Learn more

10-Day Weather Forecast

Advertisements
Track Severe Weather on mobile